sensor_id;sensor_type;location;lat;lon;timestamp;P1;durP1;ratioP1;P2;durP2;ratioP2
76788;SDS011;65740;52.464;13.446;2023-06-05T00:01:09;17.70;;;15.90;;
76788;SDS011;65740;52.464;13.446;2023-06-05T00:03:35;17.40;;;15.67;;
76788;SDS011;65740;52.464;13.446;2023-06-05T00:06:02;17.97;;;16.27;;
76788;SDS011;65740;52.464;13.446;2023-06-05T00:08:28;16.93;;;15.23;;
76788;SDS011;65740;52.464;13.446;2023-06-05T00:10:53;16.47;;;14.87;;
76788;SDS011;65740;52.464;13.446;2023-06-05T00:13:19;16.00;;;14.53;;
76788;SDS011;65740;52.464;13.446;2023-06-05T00:15:45;18.47;;;16.40;;
76788;SDS011;65740;52.464;13.446;2023-06-05T00:18:10;16.07;;;14.47;;
76788;SDS011;65740;52.464;13.446;2023-06-05T00:20:36;16.17;;;14.57;;
76788;SDS011;65740;52.464;13.446;2023-06-05T00:23:02;16.60;;;14.93;;
76788;SDS011;65740;52.464;13.446;2023-06-05T00:25:28;16.93;;;15.33;;
76788;SDS011;65740;52.464;13.446;2023-06-05T00:27:53;15.23;;;13.40;;
76788;SDS011;65740;52.464;13.446;2023-06-05T00:30:19;15.70;;;13.30;;
76788;SDS011;65740;52.464;13.446;2023-06-05T00:32:45;15.57;;;13.47;;
76788;SDS011;65740;52.464;13.446;2023-06-05T00:35:10;14.83;;;13.40;;
76788;SDS011;65740;52.464;13.446;2023-06-05T00:37:36;15.47;;;13.97;;
76788;SDS011;65740;52.464;13.446;2023-06-05T00:40:04;15.30;;;13.73;;
76788;SDS011;65740;52.464;13.446;2023-06-05T00:42:31;16.47;;;14.67;;
76788;SDS011;65740;52.464;13.446;2023-06-05T00:44:57;15.23;;;13.63;;
76788;SDS011;65740;52.464;13.446;2023-06-05T00:47:23;15.37;;;13.97;;
76788;SDS011;65740;52.464;13.446;2023-06-05T00:49:49;16.00;;;14.40;;
76788;SDS011;65740;52.464;13.446;2023-06-05T00:52:15;15.33;;;13.73;;
76788;SDS011;65740;52.464;13.446;2023-06-05T00:54:41;14.33;;;13.00;;
76788;SDS011;65740;52.464;13.446;2023-06-05T00:57:08;14.60;;;13.20;;
76788;SDS011;65740;52.464;13.446;2023-06-05T00:59:34;14.70;;;13.20;;
76788;SDS011;65740;52.464;13.446;2023-06-05T01:02:01;14.13;;;12.83;;
76788;SDS011;65740;52.464;13.446;2023-06-05T01:04:28;14.90;;;13.40;;
76788;SDS011;65740;52.464;13.446;2023-06-05T01:06:54;13.53;;;12.20;;
76788;SDS011;65740;52.464;13.446;2023-06-05T01:09:26;14.80;;;13.40;;
76788;SDS011;65740;52.464;13.446;2023-06-05T01:11:53;13.17;;;11.90;;
76788;SDS011;65740;52.464;13.446;2023-06-05T01:14:38;13.60;;;12.30;;
76788;SDS011;65740;52.464;13.446;2023-06-05T01:17:10;13.60;;;12.20;;
76788;SDS011;65740;52.464;13.446;2023-06-05T01:19:37;13.30;;;12.00;;
76788;SDS011;65740;52.464;13.446;2023-06-05T01:22:04;13.17;;;11.90;;
76788;SDS011;65740;52.464;13.446;2023-06-05T01:24:30;14.23;;;12.43;;
76788;SDS011;65740;52.464;13.446;2023-06-05T01:27:01;12.80;;;11.60;;
76788;SDS011;65740;52.464;13.446;2023-06-05T01:32:35;12.80;;;11.60;;
76788;SDS011;65740;52.464;13.446;2023-06-05T01:35:07;12.60;;;11.43;;
76788;SDS011;65740;52.464;13.446;2023-06-05T01:37:36;12.83;;;11.57;;
76788;SDS011;65740;52.464;13.446;2023-06-05T01:40:07;11.73;;;10.63;;
76788;SDS011;65740;52.464;13.446;2023-06-05T01:42:37;12.13;;;10.93;;
76788;SDS011;65740;52.464;13.446;2023-06-05T01:45:05;12.13;;;10.83;;
76788;SDS011;65740;52.464;13.446;2023-06-05T01:47:33;12.30;;;11.10;;
76788;SDS011;65740;52.464;13.446;2023-06-05T01:50:00;11.60;;;10.47;;
76788;SDS011;65740;52.464;13.446;2023-06-05T01:52:26;13.00;;;11.80;;
76788;SDS011;65740;52.464;13.446;2023-06-05T01:54:52;13.47;;;12.27;;
76788;SDS011;65740;52.464;13.446;2023-06-05T01:57:18;11.83;;;10.73;;
76788;SDS011;65740;52.464;13.446;2023-06-05T01:59:43;11.20;;;10.07;;
76788;SDS011;65740;52.464;13.446;2023-06-05T02:02:10;12.20;;;11.10;;
76788;SDS011;65740;52.464;13.446;2023-06-05T02:04:37;11.20;;;10.20;;
76788;SDS011;65740;52.464;13.446;2023-06-05T02:07:03;12.10;;;10.90;;
76788;SDS011;65740;52.464;13.446;2023-06-05T02:09:30;11.90;;;10.80;;
76788;SDS011;65740;52.464;13.446;2023-06-05T02:11:59;10.50;;;9.53;;
76788;SDS011;65740;52.464;13.446;2023-06-05T02:14:28;12.07;;;10.90;;
76788;SDS011;65740;52.464;13.446;2023-06-05T02:16:56;11.67;;;10.47;;
76788;SDS011;65740;52.464;13.446;2023-06-05T02:19:23;11.57;;;10.57;;
76788;SDS011;65740;52.464;13.446;2023-06-05T02:21:49;10.70;;;9.70;;
76788;SDS011;65740;52.464;13.446;2023-06-05T02:24:16;10.57;;;9.63;;
76788;SDS011;65740;52.464;13.446;2023-06-05T02:26:43;10.73;;;9.63;;
76788;SDS011;65740;52.464;13.446;2023-06-05T02:29:09;11.90;;;10.80;;
76788;SDS011;65740;52.464;13.446;2023-06-05T02:31:35;10.47;;;9.57;;
76788;SDS011;65740;52.464;13.446;2023-06-05T02:34:01;11.27;;;10.17;;
76788;SDS011;65740;52.464;13.446;2023-06-05T02:36:27;10.47;;;9.43;;
76788;SDS011;65740;52.464;13.446;2023-06-05T02:38:58;11.37;;;10.37;;
76788;SDS011;65740;52.464;13.446;2023-06-05T02:41:24;9.60;;;8.80;;
76788;SDS011;65740;52.464;13.446;2023-06-05T02:43:52;10.43;;;9.53;;
76788;SDS011;65740;52.464;13.446;2023-06-05T02:46:18;10.57;;;9.60;;
76788;SDS011;65740;52.464;13.446;2023-06-05T02:48:44;11.13;;;10.03;;
76788;SDS011;65740;52.464;13.446;2023-06-05T02:51:10;10.00;;;9.10;;
76788;SDS011;65740;52.464;13.446;2023-06-05T02:53:38;10.57;;;9.47;;
76788;SDS011;65740;52.464;13.446;2023-06-05T02:56:04;9.80;;;8.90;;
76788;SDS011;65740;52.464;13.446;2023-06-05T02:58:30;9.60;;;8.70;;
76788;SDS011;65740;52.464;13.446;2023-06-05T03:00:58;9.53;;;8.63;;
76788;SDS011;65740;52.464;13.446;2023-06-05T03:03:27;9.20;;;8.43;;
76788;SDS011;65740;52.464;13.446;2023-06-05T03:06:00;10.30;;;9.30;;
76788;SDS011;65740;52.464;13.446;2023-06-05T03:08:33;9.77;;;8.87;;
76788;SDS011;65740;52.464;13.446;2023-06-05T03:11:00;9.13;;;8.33;;
76788;SDS011;65740;52.464;13.446;2023-06-05T03:13:26;9.67;;;8.83;;
76788;SDS011;65740;52.464;13.446;2023-06-05T03:15:52;9.90;;;9.10;;
76788;SDS011;65740;52.464;13.446;2023-06-05T03:18:22;9.53;;;8.73;;
76788;SDS011;65740;52.464;13.446;2023-06-05T03:20:49;8.50;;;7.80;;
76788;SDS011;65740;52.464;13.446;2023-06-05T03:23:16;9.40;;;8.60;;
76788;SDS011;65740;52.464;13.446;2023-06-05T03:25:41;9.03;;;8.13;;
76788;SDS011;65740;52.464;13.446;2023-06-05T03:28:07;9.67;;;8.77;;
76788;SDS011;65740;52.464;13.446;2023-06-05T03:30:33;9.33;;;8.53;;
76788;SDS011;65740;52.464;13.446;2023-06-05T03:32:58;9.30;;;8.50;;
76788;SDS011;65740;52.464;13.446;2023-06-05T03:35:24;9.37;;;8.57;;
76788;SDS011;65740;52.464;13.446;2023-06-05T03:37:51;9.60;;;8.67;;
76788;SDS011;65740;52.464;13.446;2023-06-05T03:40:16;9.47;;;8.57;;
76788;SDS011;65740;52.464;13.446;2023-06-05T03:42:42;9.00;;;8.30;;
76788;SDS011;65740;52.464;13.446;2023-06-05T03:45:08;9.60;;;8.70;;
76788;SDS011;65740;52.464;13.446;2023-06-05T03:47:34;9.00;;;8.20;;
76788;SDS011;65740;52.464;13.446;2023-06-05T03:49:59;9.20;;;8.40;;
76788;SDS011;65740;52.464;13.446;2023-06-05T03:52:25;8.57;;;7.80;;
76788;SDS011;65740;52.464;13.446;2023-06-05T03:54:51;8.80;;;8.03;;
76788;SDS011;65740;52.464;13.446;2023-06-05T03:57:19;8.57;;;7.80;;
76788;SDS011;65740;52.464;13.446;2023-06-05T03:59:45;9.80;;;8.90;;
76788;SDS011;65740;52.464;13.446;2023-06-05T04:02:12;9.67;;;8.87;;
76788;SDS011;65740;52.464;13.446;2023-06-05T04:04:38;9.10;;;8.30;;
76788;SDS011;65740;52.464;13.446;2023-06-05T04:07:04;8.30;;;7.60;;
76788;SDS011;65740;52.464;13.446;2023-06-05T04:09:30;7.90;;;7.10;;
76788;SDS011;65740;52.464;13.446;2023-06-05T04:11:56;7.50;;;6.90;;
76788;SDS011;65740;52.464;13.446;2023-06-05T04:14:22;8.10;;;7.40;;
76788;SDS011;65740;52.464;13.446;2023-06-05T04:16:48;9.03;;;8.13;;
76788;SDS011;65740;52.464;13.446;2023-06-05T04:19:14;8.80;;;7.90;;
76788;SDS011;65740;52.464;13.446;2023-06-05T04:21:40;8.30;;;7.60;;
76788;SDS011;65740;52.464;13.446;2023-06-05T04:24:07;8.20;;;7.50;;
76788;SDS011;65740;52.464;13.446;2023-06-05T04:26:35;8.30;;;7.60;;
76788;SDS011;65740;52.464;13.446;2023-06-05T04:29:02;8.20;;;7.50;;
76788;SDS011;65740;52.464;13.446;2023-06-05T04:31:30;8.43;;;7.67;;
76788;SDS011;65740;52.464;13.446;2023-06-05T04:33:55;7.47;;;6.77;;
76788;SDS011;65740;52.464;13.446;2023-06-05T04:36:22;7.87;;;7.17;;
76788;SDS011;65740;52.464;13.446;2023-06-05T04:38:48;7.93;;;7.13;;
76788;SDS011;65740;52.464;13.446;2023-06-05T04:41:13;7.83;;;7.23;;
76788;SDS011;65740;52.464;13.446;2023-06-05T04:43:39;8.30;;;7.60;;
76788;SDS011;65740;52.464;13.446;2023-06-05T04:46:05;8.37;;;7.67;;
76788;SDS011;65740;52.464;13.446;2023-06-05T04:48:30;7.07;;;6.50;;
76788;SDS011;65740;52.464;13.446;2023-06-05T04:50:56;6.93;;;6.33;;
76788;SDS011;65740;52.464;13.446;2023-06-05T04:53:22;8.40;;;7.70;;
76788;SDS011;65740;52.464;13.446;2023-06-05T04:55:47;7.33;;;6.73;;
76788;SDS011;65740;52.464;13.446;2023-06-05T04:58:13;7.17;;;6.67;;
76788;SDS011;65740;52.464;13.446;2023-06-05T05:00:41;7.77;;;7.10;;
76788;SDS011;65740;52.464;13.446;2023-06-05T05:03:09;7.90;;;7.23;;
76788;SDS011;65740;52.464;13.446;2023-06-05T05:05:38;7.50;;;6.90;;
76788;SDS011;65740;52.464;13.446;2023-06-05T05:08:04;7.63;;;7.00;;
76788;SDS011;65740;52.464;13.446;2023-06-05T05:10:30;7.40;;;6.80;;
76788;SDS011;65740;52.464;13.446;2023-06-05T05:12:56;7.47;;;6.77;;
76788;SDS011;65740;52.464;13.446;2023-06-05T05:15:21;7.50;;;6.87;;
76788;SDS011;65740;52.464;13.446;2023-06-05T05:17:47;7.40;;;6.80;;
76788;SDS011;65740;52.464;13.446;2023-06-05T05:20:14;7.87;;;7.17;;
76788;SDS011;65740;52.464;13.446;2023-06-05T05:22:40;7.30;;;6.77;;
76788;SDS011;65740;52.464;13.446;2023-06-05T05:25:05;7.03;;;6.43;;
76788;SDS011;65740;52.464;13.446;2023-06-05T05:27:31;7.20;;;6.60;;
76788;SDS011;65740;52.464;13.446;2023-06-05T05:29:57;7.07;;;6.47;;
76788;SDS011;65740;52.464;13.446;2023-06-05T05:32:22;6.80;;;6.30;;
76788;SDS011;65740;52.464;13.446;2023-06-05T05:34:48;6.87;;;6.27;;
76788;SDS011;65740;52.464;13.446;2023-06-05T05:37:15;6.20;;;5.70;;
76788;SDS011;65740;52.464;13.446;2023-06-05T05:39:41;7.37;;;6.77;;
76788;SDS011;65740;52.464;13.446;2023-06-05T05:42:06;6.00;;;5.60;;
76788;SDS011;65740;52.464;13.446;2023-06-05T05:44:32;6.50;;;6.00;;
76788;SDS011;65740;52.464;13.446;2023-06-05T05:46:58;7.23;;;6.63;;
76788;SDS011;65740;52.464;13.446;2023-06-05T05:49:24;6.90;;;6.33;;
76788;SDS011;65740;52.464;13.446;2023-06-05T05:51:50;6.40;;;5.90;;
76788;SDS011;65740;52.464;13.446;2023-06-05T05:54:15;6.40;;;5.90;;
76788;SDS011;65740;52.464;13.446;2023-06-05T05:56:41;6.60;;;6.10;;
76788;SDS011;65740;52.464;13.446;2023-06-05T05:59:07;6.67;;;6.20;;
76788;SDS011;65740;52.464;13.446;2023-06-05T06:01:33;6.70;;;6.20;;
76788;SDS011;65740;52.464;13.446;2023-06-05T06:03:58;6.40;;;5.90;;
76788;SDS011;65740;52.464;13.446;2023-06-05T06:06:24;6.50;;;6.00;;
76788;SDS011;65740;52.464;13.446;2023-06-05T06:08:49;6.30;;;5.80;;
76788;SDS011;65740;52.464;13.446;2023-06-05T06:11:15;6.43;;;6.03;;
76788;SDS011;65740;52.464;13.446;2023-06-05T06:13:41;6.50;;;6.00;;
76788;SDS011;65740;52.464;13.446;2023-06-05T06:16:08;6.93;;;6.33;;
76788;SDS011;65740;52.464;13.446;2023-06-05T06:18:33;6.30;;;5.80;;
76788;SDS011;65740;52.464;13.446;2023-06-05T06:20:59;7.10;;;6.50;;
76788;SDS011;65740;52.464;13.446;2023-06-05T06:23:25;6.93;;;6.43;;
76788;SDS011;65740;52.464;13.446;2023-06-05T06:25:50;6.53;;;6.00;;
76788;SDS011;65740;52.464;13.446;2023-06-05T06:28:17;6.77;;;6.27;;
76788;SDS011;65740;52.464;13.446;2023-06-05T06:30:42;6.50;;;6.00;;
76788;SDS011;65740;52.464;13.446;2023-06-05T06:33:08;6.20;;;5.60;;
76788;SDS011;65740;52.464;13.446;2023-06-05T06:35:34;5.90;;;5.30;;
76788;SDS011;65740;52.464;13.446;2023-06-05T06:38:00;5.60;;;5.20;;
76788;SDS011;65740;52.464;13.446;2023-06-05T06:40:25;6.17;;;5.67;;
76788;SDS011;65740;52.464;13.446;2023-06-05T06:42:54;6.53;;;6.03;;
76788;SDS011;65740;52.464;13.446;2023-06-05T06:45:20;6.03;;;5.53;;
76788;SDS011;65740;52.464;13.446;2023-06-05T06:47:46;6.20;;;5.70;;
76788;SDS011;65740;52.464;13.446;2023-06-05T06:50:13;6.30;;;5.80;;
76788;SDS011;65740;52.464;13.446;2023-06-05T06:52:39;6.23;;;5.73;;
76788;SDS011;65740;52.464;13.446;2023-06-05T06:55:05;5.53;;;5.13;;
76788;SDS011;65740;52.464;13.446;2023-06-05T06:57:31;6.07;;;5.60;;
76788;SDS011;65740;52.464;13.446;2023-06-05T06:59:57;5.60;;;5.13;;
76788;SDS011;65740;52.464;13.446;2023-06-05T07:02:23;6.10;;;5.60;;
76788;SDS011;65740;52.464;13.446;2023-06-05T07:04:50;6.13;;;5.63;;
76788;SDS011;65740;52.464;13.446;2023-06-05T07:07:18;5.37;;;4.97;;
76788;SDS011;65740;52.464;13.446;2023-06-05T07:09:46;5.77;;;5.27;;
76788;SDS011;65740;52.464;13.446;2023-06-05T07:12:14;6.30;;;5.50;;
76788;SDS011;65740;52.464;13.446;2023-06-05T07:14:41;6.40;;;5.90;;
76788;SDS011;65740;52.464;13.446;2023-06-05T07:17:07;6.13;;;5.63;;
76788;SDS011;65740;52.464;13.446;2023-06-05T07:19:33;5.73;;;5.33;;
76788;SDS011;65740;52.464;13.446;2023-06-05T07:22:01;5.30;;;4.80;;
76788;SDS011;65740;52.464;13.446;2023-06-05T07:24:31;5.20;;;4.80;;
76788;SDS011;65740;52.464;13.446;2023-06-05T07:26:59;5.93;;;5.43;;
76788;SDS011;65740;52.464;13.446;2023-06-05T07:29:25;6.60;;;6.00;;
76788;SDS011;65740;52.464;13.446;2023-06-05T07:31:52;10.13;;;5.40;;
76788;SDS011;65740;52.464;13.446;2023-06-05T07:34:20;5.53;;;5.07;;
76788;SDS011;65740;52.464;13.446;2023-06-05T07:36:47;5.73;;;5.23;;
76788;SDS011;65740;52.464;13.446;2023-06-05T07:39:14;5.80;;;5.20;;
76788;SDS011;65740;52.464;13.446;2023-06-05T07:41:40;5.70;;;5.20;;
76788;SDS011;65740;52.464;13.446;2023-06-05T07:44:10;5.50;;;5.10;;
76788;SDS011;65740;52.464;13.446;2023-06-05T07:46:41;5.97;;;5.43;;
76788;SDS011;65740;52.464;13.446;2023-06-05T07:49:08;5.37;;;4.97;;
76788;SDS011;65740;52.464;13.446;2023-06-05T07:51:34;6.20;;;5.30;;
76788;SDS011;65740;52.464;13.446;2023-06-05T07:54:07;5.50;;;5.10;;
76788;SDS011;65740;52.464;13.446;2023-06-05T07:56:34;6.37;;;5.10;;
76788;SDS011;65740;52.464;13.446;2023-06-05T07:59:01;6.17;;;5.57;;
76788;SDS011;65740;52.464;13.446;2023-06-05T08:01:31;6.17;;;5.67;;
76788;SDS011;65740;52.464;13.446;2023-06-05T08:04:05;6.00;;;5.40;;
76788;SDS011;65740;52.464;13.446;2023-06-05T08:06:31;5.83;;;4.67;;
76788;SDS011;65740;52.464;13.446;2023-06-05T08:09:00;7.60;;;4.40;;
76788;SDS011;65740;52.464;13.446;2023-06-05T08:11:26;5.07;;;4.57;;
76788;SDS011;65740;52.464;13.446;2023-06-05T08:13:53;6.03;;;5.20;;
76788;SDS011;65740;52.464;13.446;2023-06-05T08:16:19;5.33;;;4.80;;
76788;SDS011;65740;52.464;13.446;2023-06-05T08:18:45;5.30;;;4.80;;
76788;SDS011;65740;52.464;13.446;2023-06-05T08:21:12;7.93;;;5.30;;
76788;SDS011;65740;52.464;13.446;2023-06-05T08:23:38;7.00;;;4.87;;
76788;SDS011;65740;52.464;13.446;2023-06-05T08:26:03;7.50;;;5.63;;
76788;SDS011;65740;52.464;13.446;2023-06-05T08:28:37;6.43;;;5.23;;
76788;SDS011;65740;52.464;13.446;2023-06-05T08:31:04;7.80;;;5.30;;
76788;SDS011;65740;52.464;13.446;2023-06-05T08:33:31;5.63;;;5.10;;
76788;SDS011;65740;52.464;13.446;2023-06-05T08:36:00;5.90;;;5.07;;
76788;SDS011;65740;52.464;13.446;2023-06-05T08:38:28;5.27;;;4.33;;
76788;SDS011;65740;52.464;13.446;2023-06-05T08:41:00;9.43;;;5.17;;
76788;SDS011;65740;52.464;13.446;2023-06-05T08:43:30;5.50;;;5.00;;
76788;SDS011;65740;52.464;13.446;2023-06-05T08:45:57;5.93;;;4.77;;
76788;SDS011;65740;52.464;13.446;2023-06-05T08:48:25;5.50;;;5.03;;
76788;SDS011;65740;52.464;13.446;2023-06-05T08:50:53;6.00;;;5.10;;
76788;SDS011;65740;52.464;13.446;2023-06-05T08:53:20;5.20;;;4.70;;
76788;SDS011;65740;52.464;13.446;2023-06-05T08:55:46;6.23;;;5.63;;
76788;SDS011;65740;52.464;13.446;2023-06-05T08:58:16;6.70;;;5.40;;
76788;SDS011;65740;52.464;13.446;2023-06-05T09:00:42;5.33;;;4.90;;
76788;SDS011;65740;52.464;13.446;2023-06-05T09:03:10;5.30;;;4.90;;
76788;SDS011;65740;52.464;13.446;2023-06-05T09:05:40;7.20;;;4.93;;
76788;SDS011;65740;52.464;13.446;2023-06-05T09:08:05;7.00;;;5.10;;
76788;SDS011;65740;52.464;13.446;2023-06-05T09:10:31;5.17;;;4.67;;
76788;SDS011;65740;52.464;13.446;2023-06-05T09:15:24;5.30;;;4.80;;
76788;SDS011;65740;52.464;13.446;2023-06-05T09:18:02;5.00;;;4.60;;
76788;SDS011;65740;52.464;13.446;2023-06-05T09:20:36;5.17;;;4.77;;
76788;SDS011;65740;52.464;13.446;2023-06-05T09:23:21;4.60;;;4.30;;
76788;SDS011;65740;52.464;13.446;2023-06-05T09:25:49;6.03;;;4.53;;
76788;SDS011;65740;52.464;13.446;2023-06-05T09:28:16;5.63;;;4.60;;
76788;SDS011;65740;52.464;13.446;2023-06-05T09:31:01;7.57;;;4.80;;
76788;SDS011;65740;52.464;13.446;2023-06-05T09:33:29;4.70;;;4.30;;
76788;SDS011;65740;52.464;13.446;2023-06-05T09:36:10;6.73;;;4.87;;
76788;SDS011;65740;52.464;13.446;2023-06-05T09:38:38;4.77;;;4.33;;
76788;SDS011;65740;52.464;13.446;2023-06-05T09:41:08;5.80;;;4.37;;
76788;SDS011;65740;52.464;13.446;2023-06-05T09:43:44;8.57;;;4.53;;
76788;SDS011;65740;52.464;13.446;2023-06-05T09:46:13;4.03;;;3.63;;
76788;SDS011;65740;52.464;13.446;2023-06-05T09:48:40;5.83;;;3.87;;
76788;SDS011;65740;52.464;13.446;2023-06-05T09:51:15;5.43;;;3.80;;
76788;SDS011;65740;52.464;13.446;2023-06-05T09:53:46;9.23;;;4.17;;
76788;SDS011;65740;52.464;13.446;2023-06-05T09:56:17;10.30;;;5.13;;
76788;SDS011;65740;52.464;13.446;2023-06-05T09:58:45;7.40;;;3.97;;
76788;SDS011;65740;52.464;13.446;2023-06-05T10:01:19;5.70;;;3.70;;
76788;SDS011;65740;52.464;13.446;2023-06-05T10:03:54;4.20;;;3.73;;
76788;SDS011;65740;52.464;13.446;2023-06-05T10:06:24;5.07;;;3.77;;
76788;SDS011;65740;52.464;13.446;2023-06-05T10:08:54;6.03;;;4.23;;
76788;SDS011;65740;52.464;13.446;2023-06-05T10:11:22;4.07;;;3.77;;
76788;SDS011;65740;52.464;13.446;2023-06-05T10:13:51;4.57;;;4.17;;
76788;SDS011;65740;52.464;13.446;2023-06-05T10:16:17;3.90;;;3.60;;
76788;SDS011;65740;52.464;13.446;2023-06-05T10:18:47;4.00;;;3.70;;
76788;SDS011;65740;52.464;13.446;2023-06-05T10:21:16;5.00;;;3.87;;
76788;SDS011;65740;52.464;13.446;2023-06-05T10:23:49;4.10;;;3.80;;
76788;SDS011;65740;52.464;13.446;2023-06-05T10:31:53;4.10;;;3.80;;
76788;SDS011;65740;52.464;13.446;2023-06-05T10:39:53;11.23;;;4.23;;
76788;SDS011;65740;52.464;13.446;2023-06-05T10:42:23;5.97;;;3.80;;
76788;SDS011;65740;52.464;13.446;2023-06-05T10:44:49;7.40;;;3.87;;
76788;SDS011;65740;52.464;13.446;2023-06-05T10:52:41;6.43;;;4.83;;
76788;SDS011;65740;52.464;13.446;2023-06-05T10:55:06;8.67;;;4.53;;
76788;SDS011;65740;52.464;13.446;2023-06-05T11:00:21;7.70;;;4.07;;
76788;SDS011;65740;52.464;13.446;2023-06-05T11:02:47;4.77;;;4.20;;
76788;SDS011;65740;52.464;13.446;2023-06-05T11:05:13;7.20;;;6.57;;
76788;SDS011;65740;52.464;13.446;2023-06-05T11:07:40;78.30;;;56.50;;
76788;SDS011;65740;52.464;13.446;2023-06-05T11:10:09;108.37;;;77.97;;
76788;SDS011;65740;52.464;13.446;2023-06-05T11:17:47;169.33;;;91.73;;
76788;SDS011;65740;52.464;13.446;2023-06-05T11:27:58;87.50;;;49.83;;
76788;SDS011;65740;52.464;13.446;2023-06-05T11:30:40;67.63;;;44.77;;
76788;SDS011;65740;52.464;13.446;2023-06-05T11:33:09;43.90;;;27.40;;
76788;SDS011;65740;52.464;13.446;2023-06-05T11:35:38;40.13;;;26.10;;
76788;SDS011;65740;52.464;13.446;2023-06-05T11:38:11;33.10;;;20.43;;
76788;SDS011;65740;52.464;13.446;2023-06-05T11:40:45;25.60;;;17.17;;
76788;SDS011;65740;52.464;13.446;2023-06-05T11:43:12;22.10;;;15.50;;
76788;SDS011;65740;52.464;13.446;2023-06-05T11:45:41;20.70;;;14.37;;
76788;SDS011;65740;52.464;13.446;2023-06-05T11:48:13;20.20;;;14.70;;
76788;SDS011;65740;52.464;13.446;2023-06-05T11:50:51;17.57;;;13.77;;
76788;SDS011;65740;52.464;13.446;2023-06-05T11:53:17;17.37;;;11.83;;
76788;SDS011;65740;52.464;13.446;2023-06-05T11:55:44;17.23;;;10.77;;
76788;SDS011;65740;52.464;13.446;2023-06-05T12:00:48;10.10;;;8.37;;
76788;SDS011;65740;52.464;13.446;2023-06-05T12:03:20;8.73;;;7.37;;
76788;SDS011;65740;52.464;13.446;2023-06-05T12:05:48;10.70;;;7.33;;
76788;SDS011;65740;52.464;13.446;2023-06-05T12:08:25;10.07;;;7.37;;
76788;SDS011;65740;52.464;13.446;2023-06-05T12:10:58;7.47;;;6.77;;
76788;SDS011;65740;52.464;13.446;2023-06-05T12:13:47;9.23;;;6.87;;
76788;SDS011;65740;52.464;13.446;2023-06-05T12:16:14;6.20;;;5.37;;
76788;SDS011;65740;52.464;13.446;2023-06-05T12:18:41;5.93;;;5.27;;
76788;SDS011;65740;52.464;13.446;2023-06-05T12:21:18;6.00;;;5.50;;
76788;SDS011;65740;52.464;13.446;2023-06-05T12:23:44;8.00;;;5.03;;
76788;SDS011;65740;52.464;13.446;2023-06-05T12:26:10;5.63;;;4.63;;
76788;SDS011;65740;52.464;13.446;2023-06-05T12:28:36;8.50;;;4.47;;
76788;SDS011;65740;52.464;13.446;2023-06-05T12:31:02;6.23;;;4.17;;
76788;SDS011;65740;52.464;13.446;2023-06-05T12:33:28;4.90;;;4.30;;
76788;SDS011;65740;52.464;13.446;2023-06-05T12:38:30;5.00;;;4.60;;
76788;SDS011;65740;52.464;13.446;2023-06-05T12:41:01;5.40;;;4.30;;
76788;SDS011;65740;52.464;13.446;2023-06-05T12:43:27;5.60;;;4.57;;
76788;SDS011;65740;52.464;13.446;2023-06-05T12:45:53;4.50;;;4.00;;
76788;SDS011;65740;52.464;13.446;2023-06-05T12:48:19;4.57;;;4.10;;
76788;SDS011;65740;52.464;13.446;2023-06-05T12:50:46;4.67;;;4.10;;
76788;SDS011;65740;52.464;13.446;2023-06-05T12:53:12;4.57;;;4.07;;
76788;SDS011;65740;52.464;13.446;2023-06-05T12:55:38;4.80;;;4.40;;
76788;SDS011;65740;52.464;13.446;2023-06-05T12:58:04;4.30;;;3.90;;
76788;SDS011;65740;52.464;13.446;2023-06-05T13:00:29;3.93;;;3.63;;
76788;SDS011;65740;52.464;13.446;2023-06-05T13:02:55;4.10;;;3.67;;
76788;SDS011;65740;52.464;13.446;2023-06-05T13:05:22;4.63;;;4.13;;
76788;SDS011;65740;52.464;13.446;2023-06-05T13:07:48;5.17;;;3.70;;
76788;SDS011;65740;52.464;13.446;2023-06-05T13:10:16;5.10;;;4.33;;
76788;SDS011;65740;52.464;13.446;2023-06-05T13:12:42;4.03;;;3.50;;
76788;SDS011;65740;52.464;13.446;2023-06-05T13:15:09;4.50;;;4.10;;
76788;SDS011;65740;52.464;13.446;2023-06-05T13:17:36;4.90;;;3.73;;
76788;SDS011;65740;52.464;13.446;2023-06-05T13:20:03;5.00;;;4.60;;
76788;SDS011;65740;52.464;13.446;2023-06-05T13:22:31;3.73;;;3.47;;
76788;SDS011;65740;52.464;13.446;2023-06-05T13:24:57;4.67;;;4.37;;
76788;SDS011;65740;52.464;13.446;2023-06-05T13:27:23;5.00;;;4.30;;
76788;SDS011;65740;52.464;13.446;2023-06-05T13:29:49;7.17;;;4.30;;
76788;SDS011;65740;52.464;13.446;2023-06-05T13:32:14;5.00;;;4.23;;
76788;SDS011;65740;52.464;13.446;2023-06-05T13:34:40;6.73;;;4.40;;
76788;SDS011;65740;52.464;13.446;2023-06-05T13:37:06;6.40;;;4.47;;
76788;SDS011;65740;52.464;13.446;2023-06-05T13:39:31;7.73;;;5.03;;
76788;SDS011;65740;52.464;13.446;2023-06-05T13:41:57;5.37;;;4.27;;
76788;SDS011;65740;52.464;13.446;2023-06-05T13:44:23;4.30;;;3.90;;
76788;SDS011;65740;52.464;13.446;2023-06-05T13:46:49;5.00;;;4.50;;
76788;SDS011;65740;52.464;13.446;2023-06-05T13:49:15;4.60;;;4.20;;
76788;SDS011;65740;52.464;13.446;2023-06-05T13:51:41;5.63;;;4.43;;
76788;SDS011;65740;52.464;13.446;2023-06-05T13:54:07;4.60;;;4.30;;
76788;SDS011;65740;52.464;13.446;2023-06-05T13:56:33;5.57;;;4.50;;
76788;SDS011;65740;52.464;13.446;2023-06-05T13:58:59;5.40;;;4.67;;
76788;SDS011;65740;52.464;13.446;2023-06-05T14:01:24;4.70;;;4.37;;
76788;SDS011;65740;52.464;13.446;2023-06-05T14:03:50;4.40;;;4.00;;
76788;SDS011;65740;52.464;13.446;2023-06-05T14:06:16;4.63;;;4.33;;
76788;SDS011;65740;52.464;13.446;2023-06-05T14:08:43;4.53;;;4.13;;
76788;SDS011;65740;52.464;13.446;2023-06-05T14:11:09;4.70;;;4.30;;
76788;SDS011;65740;52.464;13.446;2023-06-05T14:13:35;6.17;;;4.67;;
76788;SDS011;65740;52.464;13.446;2023-06-05T14:16:01;5.97;;;5.00;;
76788;SDS011;65740;52.464;13.446;2023-06-05T14:18:28;7.47;;;4.53;;
76788;SDS011;65740;52.464;13.446;2023-06-05T14:20:54;5.93;;;4.23;;
76788;SDS011;65740;52.464;13.446;2023-06-05T14:23:20;4.60;;;4.30;;
76788;SDS011;65740;52.464;13.446;2023-06-05T14:25:48;4.83;;;4.43;;
76788;SDS011;65740;52.464;13.446;2023-06-05T14:28:16;4.77;;;4.37;;
76788;SDS011;65740;52.464;13.446;2023-06-05T14:30:44;4.83;;;4.43;;
76788;SDS011;65740;52.464;13.446;2023-06-05T14:33:10;4.93;;;4.53;;
76788;SDS011;65740;52.464;13.446;2023-06-05T14:35:36;4.73;;;4.20;;
76788;SDS011;65740;52.464;13.446;2023-06-05T14:38:02;4.87;;;4.00;;
76788;SDS011;65740;52.464;13.446;2023-06-05T14:40:27;4.70;;;4.30;;
76788;SDS011;65740;52.464;13.446;2023-06-05T14:42:54;4.90;;;4.50;;
76788;SDS011;65740;52.464;13.446;2023-06-05T14:45:19;4.50;;;4.03;;
76788;SDS011;65740;52.464;13.446;2023-06-05T14:47:45;4.40;;;4.10;;
76788;SDS011;65740;52.464;13.446;2023-06-05T14:50:12;5.00;;;4.10;;
76788;SDS011;65740;52.464;13.446;2023-06-05T14:52:38;4.83;;;4.30;;
76788;SDS011;65740;52.464;13.446;2023-06-05T14:55:04;4.60;;;4.30;;
76788;SDS011;65740;52.464;13.446;2023-06-05T14:57:30;4.23;;;3.93;;
76788;SDS011;65740;52.464;13.446;2023-06-05T14:59:56;7.10;;;4.57;;
76788;SDS011;65740;52.464;13.446;2023-06-05T15:02:22;4.90;;;4.50;;
76788;SDS011;65740;52.464;13.446;2023-06-05T15:04:48;5.93;;;4.40;;
76788;SDS011;65740;52.464;13.446;2023-06-05T15:07:23;8.70;;;5.10;;
76788;SDS011;65740;52.464;13.446;2023-06-05T15:09:48;4.93;;;4.47;;
76788;SDS011;65740;52.464;13.446;2023-06-05T15:12:15;6.30;;;4.20;;